Clinton, OK

11:09 AM CST on February 08, 2016 (GMT -0600)
Clinton Municipal | | Change Station
CLOSE
Current Station
Airport
Location: Clinton,
Elevation: 1614 ft
Nearby Weather Stations
Active Advisory: Wind Advisory

Elev 1614 ft 35.54 °N, 98.93 °W | Updated 14 minutes ago

Clear
Clear
45 °F
Feels Like 36 °F
N
25
Wind Variable Wind from NW
Gusts 37 mph

Today
High -- | Low -- °F
--% Chance of Precip.
Yesterday
High -- | Low -- °F
Precip. -- in
Pressure 30.38 in
Visibility 10.0 miles
Clouds Clear
Windchill 36 °F
Dew Point 1 °F
Humidity 17%
Rainfall 0.00 in
Snow Depth Not available.
7:30 AM 6:10 PM
New Moon, 0% visible
METAR KCLK 081655Z AUTO 32022G32KT 10SM CLR 07/M17 A3038 RMK AO2
Pressure 30.38 in
Visibility 10.0 miles
Clouds Clear
Windchill 36 °F
Dew Point 1 °F
Humidity 17%
Rainfall 0.00 in
Snow Depth Not available.
7:30 AM 6:10 PM
New Moon, 0% visible
METAR KCLK 081655Z AUTO 32022G32KT 10SM CLR 07/M17 A3038 RMK AO2

10-Day Weather Forecast

Almanac

Astronomy

Feb. 08, 2016 Rise Set
Actual Time
Civil Twilight
Nautical Twilight
Astronomical Twilight
Moon
Length of Visible Light
Length of Day
Tomorrow will be .
, % of the Moon is Illuminated

Today's Extremes

State Highs State Lows

Community

WunderPhotos

Upload Photos

1,891,471 photos uploaded!

WunderBlog® & News

Nearby

Air Quality

  Air Quality AQ Index Pollutant
Not available.

Snow Depth

Station Depth Elevation

Earthquake Activity

City Distance Mag. Time & Date
Minimum magnitude displayed is 2.5.

Coastal Water Temperatures

Place Temperature

Stations

Nearby Weather Stations

Station Location Temp. Windchill Dew Point Humidity Wind Precip. Elev Updated Type
                   

Watches & Warnings

Wind Advisory
Issued: 2:57 AM CST Feb. 8, 2016 – National Weather Service

... Wind Advisory in effect from 10 am this morning to 6 PM CST
this evening...

* timing... late this morning through early this evening.

* Winds... north 30 to 35 mph with gusts near 40 to 50 mph.

* Impacts... driving may become difficult at times especially on
west and east roadways. Residents should ensure lightweight
outdoor objects are secured.

Precautionary/preparedness actions...

Be careful if you have to travel or if you are working or playing
outside.